Santa Maria do Suacui, Brazil
Current Conditions -  °F | °C
As of 3:00 PM on Monday 22 Dec 2014 (Local Time) from SBMK Reporting Station
Rain Showers Rain Showers  
Wind Chill: 88°   Ceiling: Unl
Heat Index: 88°   Visibility: 6mi
Dew Point: 63°   Wind: 6mph
Humidity: 43%   Direction: 20°NNE
Pressure: 29.94"   Gusts: NA
Location:  18.19°S, 42.41°W
Report Text: SBMK 221700Z 02005KT 9999 VCSH FEW040 SCT045TCU 31/17 Q1014
Loading
Personal Weather Stations






























Interactive Weather Map New forecast layout! Learn more

10-Day Weather Forecast

Advertisements
Track Severe Weather on mobile